Station SGXA2 - ST GEORGE MXAK Image indicating link to RSS feed of recent meteorological observations for station SGXA2


Conditions at SGXA2 as of
0805 GMT on 12/09/2023:
     

Click on the graph icon in the table below to see a time series plot of the last five days of that observation.

5-day plot - Wind Direction Wind Direction (WDIR): NW ( 310 deg true )
5-day plot - Wind Speed Wind Speed (WSPD): 22 kts
5-day plot - Wind Gust Wind Gust (GST): 31 kts
5-day plot - Air Temperature Air Temperature (ATMP): 28.6 °F
5-day plot - Dew Point Dew Point (DEWP): 15.8 °F
5-day plot - Wind Chill Wind Chill (CHILL): 14.0 °F
5-day plot - Wind Speed at 10 Meters Wind Speed at 10 meters (WSPD10M): 17 kts
5-day plot - Wind Speed at 20 Meters Wind Speed at 20 meters (WSPD20M): 19 kts
5-day plot -  Wind Speed, Wind Gust and Atmospheric Pressure Combined plot of Wind Speed, Gust, and Air Pressure
Previous observations
TIME
(GMT)
5-day plot - Wind Direction
WDIR
 
5-day plot - Wind Speed
WSPD
kts
5-day plot - Wind Gust
GST
kts
5-day plot - Wave Height
WVHT
ft
5-day plot - Dominant Wave Period
DPD
sec
5-day plot - Average Wave Period
APD
sec
5-day plot - Mean Wave Direction
MWD
 
5-day plot - Atmospheric Pressure
PRES
in
5-day plot - Pressure Tendency
PTDY
in
5-day plot - Air Temperature
ATMP
°F
5-day plot - Water Temperature
WTMP
°F
5-day plot - Dew Point
DEWP
°F
5-day plot - Salinity
SAL
psu
5-day plot - Visibility
VIS
nmi
5-day plot - Tide (above MLLW)
TIDE
ft
2023-12-09 0755WNW 21 31------ 27.3- 20.7---
2023-12-09 0745 NW 19 35------ 26.2- 22.6---
2023-12-09 0735 NW 30 39------ 28.2- 20.3---
2023-12-09 0725 NW 23 30------ 29.1- 15.1---
2023-12-09 0715 NW 25 32------ 28.9- 14.5---
2023-12-09 0705 NW 23 30------ 28.9- 15.1---
2023-12-09 0655 NW 20 31------ 28.8- 18.1---
2023-12-09 0645NNW 22 29------ 28.4- 19.6---
2023-12-09 0635 NW 26 34------ 28.9- 17.2---
2023-12-09 0625 NW 25 33------ 29.1- 14.9---
2023-12-09 0615 NW 25 32------ 29.1- 16.3---
2023-12-09 0605NNW 26 34------ 29.5- 16.0---
2023-12-09 0555 NW 20 27------ 28.8- 17.6---
2023-12-09 0545 NW 25 33------ 28.6- 17.8---
2023-12-09 0535 NW 28 36------ 29.3- 19.8---
2023-12-09 0525NNW 22 28------ 29.1- 21.4---
2023-12-09 0515 NW 22 28------ 28.8- 18.5---
2023-12-09 0505 NW 26 33------ 28.9- 19.2---
2023-12-09 0455NNW 26 35------ 29.3- 20.1---
2023-12-09 0445NNW 24 29------ 28.4- 21.6---
2023-12-09 0435NNW 27 35------ 28.4- 21.9---
2023-12-09 0425NNW 27 37------ 29.1- 21.4---
2023-12-09 0415 NW 24 31------ 28.8- 19.9---
2023-12-09 0405 NW 28 35------ 29.1- 22.5---
2023-12-09 0355NNW 25 33------ 29.3- 23.0---
2023-12-09 0345 NW 24 36------ 28.8- 23.9---
2023-12-09 0335 NW 22 29------ 27.3- 25.2---
2023-12-09 0325 NW 20 35------ 25.5- 25.0---
2023-12-09 0315NNW 27 38------ 28.0- 23.4---
2023-12-09 0305 NW 24 31------ 29.1- 19.9---
2023-12-09 0255 NW 24 31------ 29.3- 21.2---
2023-12-09 0245NNW 20 27------ 28.2- 23.0---
2023-12-09 0235NNW 26 35------ 28.2- 25.2---
2023-12-09 0225NNW 24 30------ 29.3- 22.6---
2023-12-09 0215NNW 24 29------ 29.5- 24.4---
2023-12-09 0205NNW 23 34------ 30.2- 18.9---
2023-12-09 0155 NW 24 29------ 30.2- 18.0---
2023-12-09 0145NNW 15 27------ 28.8- 23.0---
2023-12-09 0135NNW 12 16------ 27.7- 23.9---
2023-12-09 0125NNW 14 19------ 26.8- 23.4---
2023-12-09 0115NNW 22 31------ 26.8- 25.7---
2023-12-09 0105NNW 23 32------ 27.5- 25.9---
2023-12-09 0055WNW 17 26------ 26.6- 25.3---
2023-12-09 0045 NW 20 30------ 26.2- 26.1---
2023-12-09 0035 NW 24 33------ 28.0- 25.5---
2023-12-09 0025 W 5 15------ 26.8- 26.1---
2023-12-09 0015 W 6 8------ 27.1- 26.4---
2023-12-08 2355WNW 11 19------ 27.0- 25.5---
2023-12-08 2345WNW 17 25------ 28.9- 23.4---
2023-12-08 2335 NW 13 17------ 28.6- 20.5---
2023-12-08 2325 NW 12 16------ 27.3- 20.7---
2023-12-08 2315 NW 20 27------ 27.7- 22.6---
2023-12-08 2305 NW 18 27------ 29.1- 20.3---
2023-12-08 2255 NW 16 21------ 29.1- 18.7---
2023-12-08 2245 NW 16 23------ 28.9- 18.0---
2023-12-08 2235WNW 17 21------ 28.6- 21.2---
2023-12-08 2225WNW 20 27------ 28.9- 21.9---
2023-12-08 2215WNW 18 24------ 29.3- 19.6---
2023-12-08 2205 NW 17 25------ 28.4- 18.5---
2023-12-08 2155WNW 19 25------ 27.9- 20.1---
2023-12-08 2145WNW 17 23------ 27.5- 22.5---
2023-12-08 2135 NW 17 22------ 26.8- 23.5---
2023-12-08 2125WNW 15 21------ 25.5- 25.3---
2023-12-08 2115WNW 15 28------ 26.1- 26.1---
2023-12-08 2105WNW 13 18------ 25.9- 25.9---
2023-12-08 2055WNW 12 17------ 25.3- 25.3---
2023-12-08 2045 NW 19 27------ 25.3- 25.3---
2023-12-08 2035 NW 22 28------ 26.1- 25.9---
2023-12-08 2025 NW 18 28------ 27.7- 24.4---
2023-12-08 2015 NW 14 18------ 27.3- 23.4---
2023-12-08 2005WNW 10 15------ 26.6- 25.2---
2023-12-08 1955 NW 17 26------ 26.8- 24.3---
2023-12-08 1945 NW 18 28------ 25.7- 25.3---
2023-12-08 1935 NW 24 32------ 27.3- 24.1---
2023-12-08 1925WNW 22 31------ 27.7- 21.6---
2023-12-08 1915 W 22 30------ 26.6- 22.6---
2023-12-08 1905WNW 25 35------ 26.8- 23.5---
2023-12-08 1855 W 18 26------ 27.5- 22.6---
2023-12-08 1845 W 19 25------ 27.3- 20.8---
2023-12-08 1835 W 19 26------ 27.1- 17.8---
2023-12-08 1825WNW 20 27------ 27.1- 17.6---
2023-12-08 1815WNW 22 30------ 27.5- 18.7---
2023-12-08 1805WNW 21 33------ 27.3- 19.6---
2023-12-08 1755 W 16 21------ 27.1- 16.9---
2023-12-08 1745WNW 17 24------ 27.3- 12.4---
2023-12-08 1735WNW 18 26------ 27.3- 13.5---
2023-12-08 1725WNW 19 27------ 27.3- 14.9---
2023-12-08 1715WNW 21 31------ 27.5- 14.9---
2023-12-08 1705WNW 18 28------ 27.3- 15.4---
2023-12-08 1655WNW 18 27------ 27.1- 14.4---
2023-12-08 1645WNW 20 30------ 27.0- 12.9---
2023-12-08 1635WNW 22 30------ 26.8- 15.3---
2023-12-08 1625WNW 22 30------ 27.0- 17.1---
2023-12-08 1615WNW 19 26------ 26.1- 18.9---
2023-12-08 1605WNW 20 30------ 25.2- 21.6---
2023-12-08 1555WNW 26 35------ 27.0- 21.6---
2023-12-08 1545WNW 18 25------ 26.8- 19.9---
2023-12-08 1535 NW 24 34------ 26.6- 21.4---
2023-12-08 1525 NW 22 35------ 27.3- 19.8---
2023-12-08 1515WNW 21 29------ 27.5- 19.6---
2023-12-08 1505WNW 18 25------ 27.1- 19.9---
2023-12-08 1455WNW 21 30------ 27.1- 19.4---
2023-12-08 1445 NW 21 29------ 27.0- 20.8---
2023-12-08 1435WNW 24 30------ 27.0- 19.4---
2023-12-08 1425WNW 25 32------ 27.1- 21.4---
2023-12-08 1415 NW 17 31------ 26.4- 24.1---
2023-12-08 1405 NW 19 27------ 26.2- 24.1---
2023-12-08 1355WNW 22 28------ 25.7- 23.0---
2023-12-08 1345 NW 20 27------ 24.6- 24.6---
2023-12-08 1335WNW 27 36------ 26.1- 24.6---
2023-12-08 1325WNW 25 33------ 27.5- 22.6---
2023-12-08 1315WNW 21 29------ 27.1- 19.8---
2023-12-08 1305WNW 17 26------ 26.1- 21.9---
2023-12-08 1255WNW 23 35------ 26.6- 22.5---
2023-12-08 1245WNW 19 30------ 27.1- 20.7---
2023-12-08 1235WNW 21 26------ 27.0- 20.3---
2023-12-08 1225 NW 25 33------ 26.4- 22.5---
2023-12-08 1215WNW 23 34------ 27.1- 19.2---
2023-12-08 1207WNW 21 28------ 27.1- 16.7---
2023-12-08 1155WNW 20 27------ 27.0- 19.4---
2023-12-08 1145WNW 22 29------ 27.5- 20.8---
2023-12-08 1135WNW 22 30------ 28.2- 19.2---
2023-12-08 1125WNW 23 31------ 28.2- 18.7---
2023-12-08 1115WNW 22 30------ 28.2- 19.4---
2023-12-08 1105WNW 23 34------ 28.2- 19.0---
2023-12-08 1055WNW 24 33------ 28.4- 19.0---
2023-12-08 1045WNW 23 31------ 27.9- 20.3---
2023-12-08 1035WNW 20 30------ 28.2- 21.0---
2023-12-08 1025WNW 23 31------ 27.7- 21.4---
2023-12-08 1015WNW 22 32------ 28.0- 21.9---
2023-12-08 1005 W 21 28------ 28.0- 22.3---
2023-12-08 0955WNW 20 29------ 28.6- 19.2---
2023-12-08 0945WNW 19 26------ 28.2- 19.0---
2023-12-08 0935WNW 21 27------ 28.4- 19.0---
2023-12-08 0925WNW 20 28------ 28.2- 18.7---
2023-12-08 0916WNW 19 26------ 27.9- 19.4---
2023-12-08 0905 NW 19 25------ 27.7- 23.9---
2023-12-08 0855 NW 21 26------ 27.9- 24.4---
2023-12-08 0845WNW 21 29------ 28.0- 23.7---
2023-12-08 0835 W 22 31------ 27.9- 23.9---
2023-12-08 0825 W 22 34------ 28.9- 22.1---
2023-12-08 0815WNW 19 26------ 28.4- 22.6---
2023-12-08 0755WNW 20 29------ 28.4- 21.9---